createdAt,value
2023-01-26T00:00:10.357Z,100934.69
2023-01-26T00:01:29.248Z,100951.75
2023-01-26T00:02:08.943Z,100954.34
2023-01-26T00:02:50.011Z,100920.50
2023-01-26T00:03:32.752Z,100945.00
2023-01-26T00:04:14.059Z,100932.00
2023-01-26T00:04:48.024Z,100937.22
2023-01-26T00:05:34.954Z,100946.72
2023-01-26T00:06:17.039Z,100932.19
2023-01-26T00:07:03.955Z,100930.38
2023-01-26T00:07:39.434Z,100918.19
2023-01-26T00:08:25.999Z,100924.31
2023-01-26T00:09:01.995Z,100917.97
2023-01-26T00:09:41.952Z,100912.97
2023-01-26T00:10:22.997Z,100942.38
2023-01-26T00:11:03.966Z,100941.47
2023-01-26T00:11:44.055Z,100924.06
2023-01-26T00:12:23.940Z,100950.28
2023-01-26T00:13:03.981Z,100914.53
2023-01-26T00:13:44.970Z,100932.09
2023-01-26T00:14:24.999Z,100929.41
2023-01-26T00:15:04.936Z,100939.81
2023-01-26T00:15:45.007Z,100930.91
2023-01-26T00:16:26.141Z,100931.84
2023-01-26T00:17:05.983Z,100935.50
2023-01-26T00:17:45.926Z,100940.84
2023-01-26T00:18:26.013Z,100931.34
2023-01-26T00:19:05.952Z,100938.94
2023-01-26T00:19:45.989Z,100945.88
2023-01-26T00:20:26.951Z,100936.25
2023-01-26T00:21:08.969Z,100946.03
2023-01-26T00:21:48.930Z,100918.69
2023-01-26T00:22:30.044Z,100922.09
2023-01-26T00:23:09.906Z,100916.78
2023-01-26T00:23:51.030Z,100924.75
2023-01-26T00:24:31.949Z,100910.56
2023-01-26T00:25:13.052Z,100936.88
2023-01-26T00:25:52.967Z,100905.28
2023-01-26T00:26:34.013Z,100920.94
2023-01-26T00:27:13.910Z,100927.88
2023-01-26T00:27:54.005Z,100923.28
2023-01-26T00:28:35.940Z,100923.56
2023-01-26T00:29:16.970Z,100938.09
2023-01-26T00:29:56.984Z,100905.03
2023-01-26T00:30:37.010Z,100913.78
2023-01-26T00:31:28.093Z,100938.25
2023-01-26T00:32:07.993Z,100910.41
2023-01-26T00:32:47.931Z,100936.38
2023-01-26T00:33:27.973Z,100906.94
2023-01-26T00:34:07.951Z,100927.00
2023-01-26T00:34:47.943Z,100930.09
2023-01-26T00:35:27.897Z,100897.09
2023-01-26T00:36:07.959Z,100923.88
2023-01-26T00:36:47.933Z,100929.25
2023-01-26T00:37:28.002Z,100927.16
2023-01-26T00:38:07.917Z,100915.84
2023-01-26T00:38:48.985Z,100925.28
2023-01-26T00:39:28.895Z,100920.09
2023-01-26T00:40:23.911Z,100929.59
2023-01-26T00:41:39.916Z,100917.75
2023-01-26T00:42:20.915Z,100923.97
2023-01-26T00:43:00.988Z,100909.19
2023-01-26T00:43:40.936Z,100914.38
2023-01-26T00:44:20.946Z,100929.69
2023-01-26T00:45:00.922Z,100928.38
2023-01-26T00:45:41.960Z,100931.16
2023-01-26T00:46:23.141Z,100912.13
2023-01-26T00:47:02.931Z,100900.03
2023-01-26T00:47:42.888Z,100912.28
2023-01-26T00:48:24.905Z,100929.69
2023-01-26T00:49:06.896Z,100902.78
2023-01-26T00:49:47.031Z,100922.00
2023-01-26T00:50:27.904Z,100925.44
2023-01-26T00:51:08.003Z,100927.16
2023-01-26T00:51:47.902Z,100922.00
2023-01-26T00:52:28.006Z,100911.28
2023-01-26T00:53:07.910Z,100900.88
2023-01-26T00:53:47.959Z,100903.56
2023-01-26T00:54:28.873Z,100914.72
2023-01-26T00:55:09.021Z,100908.75
2023-01-26T00:55:49.881Z,100903.72
2023-01-26T00:56:29.959Z,100913.84
2023-01-26T00:57:09.893Z,100892.16
2023-01-26T00:57:49.932Z,100892.25
2023-01-26T00:58:30.889Z,100910.22
2023-01-26T00:59:10.934Z,100918.16
2023-01-26T00:59:50.903Z,100898.81
2023-01-26T01:00:30.980Z,100906.31
2023-01-26T01:01:11.945Z,100900.19
2023-01-26T01:01:52.229Z,100912.28
2023-01-26T01:02:32.897Z,100894.72
2023-01-26T01:03:14.168Z,100908.84
2023-01-26T01:03:53.934Z,100916.88
2023-01-26T01:04:33.962Z,100906.56
2023-01-26T01:05:15.147Z,100909.19
2023-01-26T01:05:54.966Z,100888.59
2023-01-26T01:06:35.895Z,100905.91
2023-01-26T01:07:15.956Z,100911.94
2023-01-26T01:07:55.875Z,100907.78
2023-01-26T01:08:35.988Z,100914.97
2023-01-26T01:09:15.912Z,100911.44
2023-01-26T01:09:55.989Z,100895.88
2023-01-26T01:10:36.870Z,100903.13
2023-01-26T01:11:18.959Z,100896.53
2023-01-26T01:11:58.870Z,100909.69
2023-01-26T01:12:38.936Z,100893.34
2023-01-26T01:13:18.865Z,100912.38
2023-01-26T01:13:58.941Z,100908.94
2023-01-26T01:14:39.875Z,100914.91
2023-01-26T01:15:20.960Z,100921.53
2023-01-26T01:16:00.930Z,100890.06
2023-01-26T01:16:40.997Z,100908.31
2023-01-26T01:17:20.876Z,100899.47
2023-01-26T01:18:00.995Z,100907.19
2023-01-26T01:18:42.909Z,100902.09
2023-01-26T01:19:24.958Z,100901.16
2023-01-26T01:20:04.879Z,100892.34
2023-01-26T01:20:47.907Z,100903.56
2023-01-26T01:21:29.899Z,100877.25
2023-01-26T01:22:09.975Z,100906.25
2023-01-26T01:22:50.885Z,100899.13
2023-01-26T01:23:32.913Z,100877.34
2023-01-26T01:24:13.913Z,100891.44
2023-01-26T01:24:53.937Z,100877.16
2023-01-26T01:25:33.887Z,100894.38
2023-01-26T01:26:14.967Z,100893.44
2023-01-26T01:26:55.853Z,100902.38
2023-01-26T01:27:35.962Z,100882.47
2023-01-26T01:28:15.841Z,100869.41
2023-01-26T01:28:56.066Z,100876.16
2023-01-26T01:29:35.863Z,100900.69
2023-01-26T01:30:16.953Z,100869.41
2023-01-26T01:30:57.976Z,100895.34
2023-01-26T01:31:31.669Z,100893.50
2023-01-26T01:32:18.833Z,100883.22
2023-01-26T01:32:53.458Z,100892.56
2023-01-26T01:33:40.833Z,100852.97
2023-01-26T01:34:14.544Z,100864.03
2023-01-26T01:35:02.863Z,100892.66
2023-01-26T01:35:36.554Z,100892.03
2023-01-26T01:36:22.906Z,100876.84
2023-01-26T01:36:56.921Z,100882.03
2023-01-26T01:37:30.979Z,100890.66
2023-01-26T01:38:10.852Z,100881.84
2023-01-26T01:38:44.910Z,100893.97
2023-01-26T01:39:19.563Z,100897.75
2023-01-26T01:39:59.833Z,100877.72
2023-01-26T01:40:33.903Z,100894.13
2023-01-26T01:41:08.500Z,100892.41
2023-01-26T01:41:48.896Z,100890.66
2023-01-26T01:42:22.894Z,100871.53
2023-01-26T01:42:56.566Z,100863.19
2023-01-26T01:43:37.841Z,100880.63
2023-01-26T01:44:20.935Z,100877.00
2023-01-26T01:45:29.432Z,100838.59
2023-01-26T01:46:25.844Z,100888.75
2023-01-26T01:47:16.922Z,100886.63
2023-01-26T01:48:02.150Z,100890.66
2023-01-26T01:49:13.848Z,100875.97
2023-01-26T01:49:50.843Z,100879.78
2023-01-26T01:50:38.839Z,100852.88
2023-01-26T01:51:20.124Z,100862.13
2023-01-26T01:52:24.857Z,100848.97
2023-01-26T01:52:58.531Z,100880.28
2023-01-26T01:53:51.828Z,100863.69
2023-01-26T01:54:35.864Z,100863.69
2023-01-26T01:55:24.888Z,100876.75
2023-01-26T01:56:04.764Z,100870.19
2023-01-26T01:56:55.817Z,100879.78
2023-01-26T01:57:50.857Z,100860.47
2023-01-26T01:58:31.967Z,100857.97
2023-01-26T01:59:12.834Z,100868.44
2023-01-26T01:59:59.881Z,100869.22
2023-01-26T02:00:40.830Z,100864.72
2023-01-26T02:01:20.892Z,100879.00
2023-01-26T02:02:02.878Z,100868.34
2023-01-26T02:02:43.904Z,100843.25
2023-01-26T02:03:27.853Z,100857.13
2023-01-26T02:04:11.433Z,100865.56
2023-01-26T02:04:52.853Z,100858.06
2023-01-26T02:05:38.853Z,100863.00
2023-01-26T02:06:34.826Z,100860.91
2023-01-26T02:07:15.863Z,100866.09
2023-01-26T02:07:57.826Z,100864.22
2023-01-26T02:08:56.834Z,100847.78
2023-01-26T02:09:53.130Z,100848.81
2023-01-26T02:10:40.819Z,100860.91
2023-01-26T02:11:36.675Z,100857.78
2023-01-26T02:12:26.906Z,100853.13
2023-01-26T02:13:00.808Z,100843.38
2023-01-26T02:13:48.838Z,100830.22
2023-01-26T02:14:28.854Z,100860.56
2023-01-26T02:15:09.874Z,100844.31
2023-01-26T02:15:50.831Z,100833.59
2023-01-26T02:16:31.001Z,100858.66
2023-01-26T02:17:10.806Z,100863.00
2023-01-26T02:17:51.863Z,100848.97
2023-01-26T02:18:31.828Z,100845.50
2023-01-26T02:19:17.862Z,100864.34
2023-01-26T02:20:24.832Z,100858.59
2023-01-26T02:21:13.909Z,100839.38
2023-01-26T02:21:57.845Z,100836.69
2023-01-26T02:23:02.864Z,100853.97
2023-01-26T02:24:15.845Z,100850.34
2023-01-26T02:24:49.851Z,100829.41
2023-01-26T02:25:58.834Z,100848.34
2023-01-26T02:26:38.848Z,100841.44
2023-01-26T02:27:25.812Z,100837.69
2023-01-26T02:27:59.942Z,100837.13
2023-01-26T02:28:47.822Z,100845.19
2023-01-26T02:29:21.876Z,100818.69
2023-01-26T02:30:13.818Z,100819.47
2023-01-26T02:30:47.878Z,100827.94
2023-01-26T02:31:29.824Z,100808.84
2023-01-26T02:32:09.838Z,100823.13
2023-01-26T02:32:49.774Z,100832.16
2023-01-26T02:33:33.877Z,100833.72
2023-01-26T02:34:13.825Z,100829.03
2023-01-26T02:34:53.857Z,100800.59
2023-01-26T02:35:33.797Z,100816.94
2023-01-26T02:36:17.870Z,100821.06
2023-01-26T02:37:07.838Z,100826.28
2023-01-26T02:37:47.851Z,100819.81
2023-01-26T02:38:29.775Z,100805.72
2023-01-26T02:39:30.906Z,100827.31
2023-01-26T02:40:38.827Z,100826.44
2023-01-26T02:41:41.443Z,100820.94
2023-01-26T02:42:40.798Z,100812.63
2023-01-26T02:43:20.849Z,100805.28
2023-01-26T02:44:00.793Z,100781.84
2023-01-26T02:44:40.867Z,100813.88
2023-01-26T02:45:22.784Z,100819.22
2023-01-26T02:46:02.936Z,100806.28
2023-01-26T02:46:42.832Z,100824.59
2023-01-26T02:47:25.866Z,100816.53
2023-01-26T02:48:11.084Z,100804.47
2023-01-26T02:49:09.455Z,100788.88
2023-01-26T02:49:58.763Z,100792.53
2023-01-26T02:50:39.855Z,100798.50
2023-01-26T02:51:19.769Z,100793.72
2023-01-26T02:51:59.852Z,100811.09
2023-01-26T02:52:40.780Z,100803.91
2023-01-26T02:53:27.854Z,100805.63
2023-01-26T02:54:41.814Z,100792.94
2023-01-26T02:55:35.790Z,100798.75
2023-01-26T02:56:29.772Z,100812.28
2023-01-26T02:57:23.798Z,100794.84
2023-01-26T02:58:18.762Z,100791.97
2023-01-26T02:58:58.763Z,100806.66
2023-01-26T02:59:38.842Z,100802.44
2023-01-26T03:00:35.805Z,100803.97
2023-01-26T03:01:16.867Z,100782.09
2023-01-26T03:01:57.850Z,100794.28
2023-01-26T03:02:37.811Z,100791.53
2023-01-26T03:03:22.767Z,100794.97
2023-01-26T03:04:09.802Z,100798.41
2023-01-26T03:05:03.812Z,100784.41
2023-01-26T03:05:57.784Z,100787.69
2023-01-26T03:06:51.760Z,100788.56
2023-01-26T03:07:45.770Z,100797.56
2023-01-26T03:08:39.798Z,100754.00
2023-01-26T03:09:26.794Z,100787.19
2023-01-26T03:10:00.794Z,100770.78
2023-01-26T03:10:47.730Z,100789.28
2023-01-26T03:11:21.792Z,100780.63
2023-01-26T03:12:09.736Z,100760.34
2023-01-26T03:12:50.838Z,100762.19
2023-01-26T03:13:30.804Z,100775.56
2023-01-26T03:14:11.826Z,100783.16
2023-01-26T03:14:51.787Z,100773.06
2023-01-26T03:15:42.919Z,100760.72
2023-01-26T03:16:24.770Z,100783.94
2023-01-26T03:17:04.789Z,100784.81
2023-01-26T03:17:45.756Z,100779.47
2023-01-26T03:18:46.497Z,100756.91
2023-01-26T03:19:45.793Z,100788.06
2023-01-26T03:20:44.787Z,100790.50
2023-01-26T03:21:41.182Z,100779.09
2023-01-26T03:22:34.076Z,100780.72
2023-01-26T03:23:34.773Z,100783.41
2023-01-26T03:24:27.426Z,100783.25
2023-01-26T03:25:19.897Z,100774.34
2023-01-26T03:26:18.788Z,100768.19
2023-01-26T03:27:11.529Z,100778.66
2023-01-26T03:27:48.081Z,100756.72
2023-01-26T03:28:28.747Z,100772.09
2023-01-26T03:29:02.803Z,100757.31
2023-01-26T03:29:36.431Z,100762.59
2023-01-26T03:30:18.846Z,100778.06
2023-01-26T03:30:52.790Z,100776.31
2023-01-26T03:31:32.763Z,100777.34
2023-01-26T03:32:12.886Z,100750.41
2023-01-26T03:32:53.735Z,100779.78
2023-01-26T03:33:33.845Z,100766.63
2023-01-26T03:34:13.764Z,100745.91
2023-01-26T03:34:53.869Z,100771.72
2023-01-26T03:35:33.746Z,100751.59
2023-01-26T03:36:14.779Z,100755.13
2023-01-26T03:36:55.793Z,100752.34
2023-01-26T03:37:43.599Z,100742.25
2023-01-26T03:38:23.725Z,100768.19
2023-01-26T03:39:03.807Z,100771.56
2023-01-26T03:40:02.746Z,100749.97
2023-01-26T03:41:01.531Z,100751.59
2023-01-26T03:42:00.802Z,100749.88
2023-01-26T03:43:01.314Z,100760.25
2023-01-26T03:44:00.735Z,100760.59
2023-01-26T03:44:53.692Z,100759.91
2023-01-26T03:45:59.754Z,100747.81
2023-01-26T03:46:52.297Z,100759.59
2023-01-26T03:47:51.772Z,100748.28
2023-01-26T03:48:50.358Z,100756.72
2023-01-26T03:49:49.745Z,100746.09
2023-01-26T03:50:48.411Z,100762.31
2023-01-26T03:51:47.747Z,100743.66
2023-01-26T03:52:47.432Z,100729.41
2023-01-26T03:53:49.741Z,100744.88
2023-01-26T03:54:48.201Z,100748.50
2023-01-26T03:55:46.736Z,100761.47
2023-01-26T03:56:32.434Z,100740.47
2023-01-26T03:57:13.701Z,100763.88
2023-01-26T03:57:55.784Z,100745.63
2023-01-26T03:58:36.714Z,100756.97
2023-01-26T03:59:17.737Z,100748.16
2023-01-26T03:59:51.769Z,100765.41
2023-01-26T04:00:38.745Z,100736.91
2023-01-26T04:01:18.678Z,100759.28
2023-01-26T04:02:24.837Z,100754.88
2023-01-26T04:03:17.169Z,100757.47
2023-01-26T04:04:22.722Z,100744.53
2023-01-26T04:05:16.541Z,100745.41
2023-01-26T04:06:24.709Z,100734.66
2023-01-26T04:07:18.181Z,100755.41
2023-01-26T04:08:28.683Z,100742.09
2023-01-26T04:09:02.759Z,100750.63
2023-01-26T04:09:45.752Z,100748.06
2023-01-26T04:10:25.743Z,100735.78
2023-01-26T04:11:06.687Z,100732.22
2023-01-26T04:11:46.866Z,100733.19
2023-01-26T04:12:27.697Z,100735.00
2023-01-26T04:13:26.517Z,100726.88
2023-01-26T04:14:25.724Z,100738.94
2023-01-26T04:15:24.756Z,100738.19
2023-01-26T04:16:17.521Z,100685.94
2023-01-26T04:17:24.663Z,100733.78
2023-01-26T04:18:17.773Z,100735.50
2023-01-26T04:19:23.692Z,100713.59
2023-01-26T04:20:17.389Z,100722.56
2023-01-26T04:21:16.717Z,100732.22
2023-01-26T04:21:56.744Z,100719.78
2023-01-26T04:22:37.676Z,100734.66
2023-01-26T04:23:35.783Z,100724.16
2023-01-26T04:24:20.739Z,100742.97
2023-01-26T04:25:01.783Z,100731.47
2023-01-26T04:25:41.682Z,100720.25
2023-01-26T04:26:29.708Z,100740.88
2023-01-26T04:27:23.689Z,100716.25
2023-01-26T04:28:17.700Z,100731.03
2023-01-26T04:29:11.721Z,100732.22
2023-01-26T04:30:05.695Z,100728.19
2023-01-26T04:30:59.694Z,100733.91
2023-01-26T04:31:47.753Z,100713.59
2023-01-26T04:32:21.751Z,100715.06
2023-01-26T04:33:08.685Z,100737.59
2023-01-26T04:33:42.748Z,100725.66
2023-01-26T04:34:29.681Z,100733.56
2023-01-26T04:35:03.761Z,100732.44
2023-01-26T04:35:50.651Z,100721.22
2023-01-26T04:36:24.755Z,100732.59
2023-01-26T04:37:11.681Z,100736.44
2023-01-26T04:37:45.740Z,100739.88
2023-01-26T04:38:32.696Z,100741.16
2023-01-26T04:39:06.792Z,100740.91
2023-01-26T04:39:53.681Z,100744.38
2023-01-26T04:40:27.716Z,100728.19
2023-01-26T04:41:14.657Z,100739.06
2023-01-26T04:41:48.737Z,100741.00
2023-01-26T04:42:35.724Z,100746.09
2023-01-26T04:43:09.701Z,100730.44
2023-01-26T04:43:56.689Z,100746.75
2023-01-26T04:44:30.713Z,100727.09
2023-01-26T04:45:18.680Z,100745.22
2023-01-26T04:45:52.747Z,100721.63
2023-01-26T04:46:39.693Z,100730.00
2023-01-26T04:47:13.742Z,100720.41
2023-01-26T04:48:00.673Z,100707.47
2023-01-26T04:48:35.704Z,100742.19
2023-01-26T04:49:22.662Z,100713.31
2023-01-26T04:49:56.731Z,100732.22
2023-01-26T04:50:43.690Z,100733.88
2023-01-26T04:51:24.773Z,100719.03
2023-01-26T04:52:11.664Z,100713.94
2023-01-26T04:52:45.721Z,100718.94
2023-01-26T04:53:26.681Z,100732.38
2023-01-26T04:54:06.759Z,100712.50
2023-01-26T04:54:47.674Z,100731.34
2023-01-26T04:55:27.740Z,100730.75
2023-01-26T04:56:07.683Z,100698.34
2023-01-26T04:56:47.725Z,100711.38
2023-01-26T04:57:29.845Z,100721.50
2023-01-26T04:58:09.717Z,100718.13
2023-01-26T04:58:49.691Z,100723.78
2023-01-26T04:59:29.778Z,100700.94
2023-01-26T05:00:11.921Z,100718.22
2023-01-26T05:01:23.993Z,100727.06
2023-01-26T05:02:04.651Z,100699.06
2023-01-26T05:02:44.719Z,100705.03
2023-01-26T05:03:25.650Z,100709.22
2023-01-26T05:04:07.710Z,100712.44
2023-01-26T05:04:41.722Z,100697.38
2023-01-26T05:05:28.670Z,100710.41
2023-01-26T05:06:02.692Z,100686.25
2023-01-26T05:06:50.658Z,100699.97
2023-01-26T05:07:24.683Z,100700.75
2023-01-26T05:08:12.714Z,100703.44
2023-01-26T05:08:46.741Z,100712.34
2023-01-26T05:09:26.679Z,100690.94
2023-01-26T05:10:06.716Z,100702.84
2023-01-26T05:10:47.626Z,100684.53
2023-01-26T05:11:27.699Z,100703.69
2023-01-26T05:12:27.673Z,100721.03
2023-01-26T05:13:07.706Z,100704.47
2023-01-26T05:13:47.675Z,100705.25
2023-01-26T05:14:34.674Z,100701.28
2023-01-26T05:15:28.602Z,100699.47
2023-01-26T05:16:22.706Z,100689.47
2023-01-26T05:17:16.643Z,100708.19
2023-01-26T05:18:12.645Z,100698.19
2023-01-26T05:19:07.640Z,100700.78
2023-01-26T05:19:54.653Z,100700.41
2023-01-26T05:20:28.690Z,100712.97
2023-01-26T05:21:17.621Z,100693.97
2023-01-26T05:21:51.691Z,100716.38
2023-01-26T05:22:38.647Z,100714.09
2023-01-26T05:23:12.714Z,100709.78
2023-01-26T05:24:01.657Z,100709.53
2023-01-26T05:24:35.690Z,100705.78
2023-01-26T05:25:16.666Z,100707.78
2023-01-26T05:25:56.768Z,100711.97
2023-01-26T05:26:36.607Z,100714.66
2023-01-26T05:27:22.838Z,100709.09
2023-01-26T05:28:03.673Z,100701.34
2023-01-26T05:28:45.226Z,100709.09
2023-01-26T05:29:25.620Z,100710.06
2023-01-26T05:30:05.733Z,100665.31
2023-01-26T05:30:45.650Z,100703.16
2023-01-26T05:31:25.650Z,100713.59
2023-01-26T05:32:06.642Z,100713.09
2023-01-26T05:32:46.681Z,100701.25
2023-01-26T05:33:28.588Z,100690.66
2023-01-26T05:34:08.671Z,100704.44
2023-01-26T05:34:48.646Z,100702.91
2023-01-26T05:35:28.708Z,100701.25
2023-01-26T05:36:14.649Z,100697.38
2023-01-26T05:36:54.863Z,100670.78
2023-01-26T05:37:35.627Z,100698.38
2023-01-26T05:38:15.697Z,100695.28
2023-01-26T05:38:55.610Z,100659.34
2023-01-26T05:39:35.681Z,100694.06
2023-01-26T05:40:17.594Z,100702.72
2023-01-26T05:40:57.773Z,100684.09
2023-01-26T05:41:37.645Z,100693.34
2023-01-26T05:42:18.632Z,100672.34
2023-01-26T05:42:59.645Z,100684.69
2023-01-26T05:43:39.693Z,100697.56
2023-01-26T05:44:20.605Z,100692.13
2023-01-26T05:45:00.693Z,100687.41
2023-01-26T05:45:41.637Z,100656.34
2023-01-26T05:46:21.643Z,100687.34
2023-01-26T05:47:01.637Z,100702.22
2023-01-26T05:47:43.052Z,100684.66
2023-01-26T05:48:23.669Z,100689.16
2023-01-26T05:49:03.730Z,100691.56
2023-01-26T05:49:47.614Z,100688.00
2023-01-26T05:50:27.686Z,100685.53
2023-01-26T05:51:07.669Z,100686.19
2023-01-26T05:51:47.663Z,100687.75
2023-01-26T05:52:29.625Z,100676.34
2023-01-26T05:53:09.729Z,100678.09
2023-01-26T05:53:49.583Z,100681.53
2023-01-26T05:54:29.647Z,100679.59
2023-01-26T05:55:12.562Z,100688.81
2023-01-26T05:55:52.645Z,100693.00
2023-01-26T05:56:33.601Z,100691.06
2023-01-26T05:57:13.650Z,100682.66
2023-01-26T05:57:53.677Z,100682.75
2023-01-26T05:58:33.641Z,100688.81
2023-01-26T05:59:13.606Z,100666.16
2023-01-26T05:59:53.818Z,100690.78
2023-01-26T06:00:34.567Z,100677.66
2023-01-26T06:01:14.636Z,100669.03
2023-01-26T06:01:54.646Z,100676.88
2023-01-26T06:02:34.765Z,100679.38
2023-01-26T06:03:14.606Z,100664.97
2023-01-26T06:03:54.703Z,100685.78
2023-01-26T06:04:34.631Z,100684.75
2023-01-26T06:05:15.663Z,100684.56
2023-01-26T06:06:01.608Z,100682.84
2023-01-26T06:06:41.675Z,100685.69
2023-01-26T06:07:22.577Z,100692.25
2023-01-26T06:08:02.652Z,100670.41
2023-01-26T06:08:42.616Z,100690.91
2023-01-26T06:09:25.227Z,100679.38
2023-01-26T06:10:07.596Z,100686.38
2023-01-26T06:10:47.635Z,100682.25
2023-01-26T06:11:27.579Z,100691.06
2023-01-26T06:12:07.648Z,100675.91
2023-01-26T06:12:49.572Z,100682.25
2023-01-26T06:13:29.620Z,100687.41
2023-01-26T06:14:10.603Z,100691.06
2023-01-26T06:14:50.600Z,100694.09
2023-01-26T06:15:30.570Z,100676.41
2023-01-26T06:16:10.614Z,100677.06
2023-01-26T06:16:50.660Z,100687.41
2023-01-26T06:17:31.625Z,100682.06
2023-01-26T06:18:11.612Z,100691.00
2023-01-26T06:18:54.731Z,100687.16
2023-01-26T06:19:34.545Z,100689.06
2023-01-26T06:20:15.743Z,100693.38
2023-01-26T06:20:55.521Z,100702.63
2023-01-26T06:21:35.626Z,100696.41
2023-01-26T06:22:20.572Z,100694.16
2023-01-26T06:23:01.556Z,100691.75
2023-01-26T06:23:41.598Z,100680.34
2023-01-26T06:24:22.174Z,100684.75
2023-01-26T06:25:03.557Z,100697.59
2023-01-26T06:25:44.627Z,100677.59
2023-01-26T06:26:24.558Z,100695.69
2023-01-26T06:27:06.912Z,100693.91
2023-01-26T06:27:48.536Z,100692.25
2023-01-26T06:28:28.646Z,100686.03
2023-01-26T06:29:08.565Z,100679.75
2023-01-26T06:29:49.599Z,100694.09
2023-01-26T06:30:29.665Z,100695.66
2023-01-26T06:31:11.840Z,100696.25
2023-01-26T06:31:51.521Z,100681.84
2023-01-26T06:32:31.638Z,100709.56
2023-01-26T06:33:13.516Z,100695.13
2023-01-26T06:33:53.579Z,100690.03
2023-01-26T06:34:33.591Z,100701.63
2023-01-26T06:35:14.613Z,100689.53
2023-01-26T06:35:54.572Z,100694.91
2023-01-26T06:36:34.654Z,100680.53
2023-01-26T06:37:15.532Z,100700.19
2023-01-26T06:37:56.643Z,100696.06
2023-01-26T06:38:37.548Z,100693.97
2023-01-26T06:39:19.662Z,100686.03
2023-01-26T06:39:59.547Z,100704.53
2023-01-26T06:40:39.605Z,100704.31
2023-01-26T06:41:19.629Z,100695.69
2023-01-26T06:42:00.587Z,100707.81
2023-01-26T06:42:40.560Z,100703.28
2023-01-26T06:43:20.616Z,100702.44
2023-01-26T06:44:01.734Z,100707.00
2023-01-26T06:44:41.642Z,100710.38
2023-01-26T06:45:22.542Z,100693.53
2023-01-26T06:46:04.793Z,100703.09
2023-01-26T06:46:46.672Z,100712.59
2023-01-26T06:47:26.620Z,100692.63
2023-01-26T06:48:06.577Z,100703.03
2023-01-26T06:48:46.654Z,100702.94
2023-01-26T06:49:26.542Z,100703.97
2023-01-26T06:50:06.570Z,100696.88
2023-01-26T06:50:46.586Z,100687.22
2023-01-26T06:51:26.776Z,100687.38
2023-01-26T06:52:32.591Z,100694.47
2023-01-26T06:53:32.614Z,100695.63
2023-01-26T06:54:15.559Z,100682.88
2023-01-26T06:54:57.582Z,100700.50
2023-01-26T06:55:45.544Z,100701.09
2023-01-26T06:56:28.603Z,100701.28
2023-01-26T06:57:09.519Z,100703.56
2023-01-26T06:57:49.574Z,100688.59
2023-01-26T06:58:23.634Z,100696.38
2023-01-26T06:59:12.526Z,100706.03
2023-01-26T06:59:46.617Z,100710.47
2023-01-26T07:00:33.518Z,100695.88
2023-01-26T07:01:07.668Z,100685.31
2023-01-26T07:02:18.807Z,100702.81
2023-01-26T07:02:59.543Z,100701.06
2023-01-26T07:03:33.561Z,100700.97
2023-01-26T07:04:07.491Z,100697.34
2023-01-26T07:04:47.563Z,100717.06
2023-01-26T07:05:21.620Z,100693.66
2023-01-26T07:05:55.223Z,100700.28
2023-01-26T07:06:35.537Z,100701.06
2023-01-26T07:07:09.627Z,100679.66
2023-01-26T07:07:44.076Z,100711.59
2023-01-26T07:08:24.544Z,100699.34
2023-01-26T07:08:58.593Z,100676.53
2023-01-26T07:09:32.171Z,100688.81
2023-01-26T07:10:13.669Z,100696.38
2023-01-26T07:10:47.556Z,100654.75
2023-01-26T07:11:22.670Z,100688.22
2023-01-26T07:12:02.510Z,100695.28
2023-01-26T07:12:49.554Z,100685.31
2023-01-26T07:13:23.177Z,100690.31
2023-01-26T07:14:04.644Z,100686.72
2023-01-26T07:14:39.785Z,100695.03
2023-01-26T07:15:14.267Z,100693.81
2023-01-26T07:15:54.518Z,100661.06
2023-01-26T07:16:28.680Z,100676.78
2023-01-26T07:17:02.649Z,100674.59
2023-01-26T07:17:42.558Z,100672.88
2023-01-26T07:18:16.586Z,100677.97
2023-01-26T07:18:50.180Z,100680.06
2023-01-26T07:19:31.526Z,100686.03
2023-01-26T07:20:05.584Z,100668.66
2023-01-26T07:20:39.252Z,100686.19
2023-01-26T07:21:25.527Z,100675.66
2023-01-26T07:21:59.601Z,100679.97
2023-01-26T07:22:33.436Z,100677.78
2023-01-26T07:23:13.526Z,100685.09
2023-01-26T07:23:47.666Z,100675.34
2023-01-26T07:24:21.919Z,100662.50
2023-01-26T07:25:01.540Z,100656.19
2023-01-26T07:25:35.773Z,100650.13
2023-01-26T07:26:09.161Z,100656.44
2023-01-26T07:26:49.515Z,100659.72
2023-01-26T07:27:23.623Z,100663.75
2023-01-26T07:27:59.359Z,100673.81
2023-01-26T07:28:40.596Z,100662.19
2023-01-26T07:29:14.586Z,100671.91
2023-01-26T07:29:48.205Z,100667.13
2023-01-26T07:30:28.516Z,100665.41
2023-01-26T07:31:04.615Z,100649.75
2023-01-26T07:31:38.193Z,100653.22
2023-01-26T07:32:19.482Z,100655.81
2023-01-26T07:32:53.575Z,100659.84
2023-01-26T07:33:28.908Z,100662.53
2023-01-26T07:34:08.477Z,100653.31
2023-01-26T07:34:42.553Z,100654.84
2023-01-26T07:35:16.193Z,100656.78
2023-01-26T07:36:00.515Z,100667.28
2023-01-26T07:36:34.554Z,100669.03
2023-01-26T07:37:08.238Z,100674.13
2023-01-26T07:37:49.551Z,100681.13
2023-01-26T07:38:23.594Z,100681.88
2023-01-26T07:38:57.277Z,100677.28
2023-01-26T07:39:38.509Z,100672.63
2023-01-26T07:40:13.941Z,100668.47
2023-01-26T07:40:48.332Z,100670.09
2023-01-26T07:41:28.527Z,100675.56
2023-01-26T07:42:02.552Z,100674.59
2023-01-26T07:42:36.228Z,100672.78
2023-01-26T07:43:16.475Z,100663.28
2023-01-26T07:43:56.870Z,100670.19
2023-01-26T07:44:37.474Z,100665.09
2023-01-26T07:45:18.567Z,100657.00
2023-01-26T07:46:01.455Z,100671.66
2023-01-26T07:46:48.549Z,100671.00
2023-01-26T07:47:22.367Z,100650.25
2023-01-26T07:48:10.465Z,100667.53
2023-01-26T07:48:44.228Z,100659.94
2023-01-26T07:49:32.463Z,100659.69
2023-01-26T07:50:07.166Z,100671.16
2023-01-26T07:50:54.521Z,100660.72
2023-01-26T07:51:28.164Z,100661.06
2023-01-26T07:52:08.486Z,100665.91
2023-01-26T07:52:43.611Z,100685.16
2023-01-26T07:53:22.754Z,100677.00
2023-01-26T07:54:03.496Z,100679.69
2023-01-26T07:54:38.185Z,100664.19
2023-01-26T07:55:12.285Z,100678.75
2023-01-26T07:55:53.493Z,100681.34
2023-01-26T07:56:27.523Z,100674.06
2023-01-26T07:57:01.390Z,100677.34
2023-01-26T07:57:41.498Z,100675.41
2023-01-26T07:58:18.484Z,100669.28
2023-01-26T07:58:53.432Z,100677.13
2023-01-26T07:59:33.514Z,100656.25
2023-01-26T08:00:07.578Z,100678.88
2023-01-26T08:00:41.482Z,100669.41
2023-01-26T08:01:22.521Z,100686.16
2023-01-26T08:01:57.626Z,100686.16
2023-01-26T08:02:31.206Z,100656.78
2023-01-26T08:03:12.495Z,100683.72
2023-01-26T08:03:47.541Z,100685.38
2023-01-26T08:04:21.138Z,100677.50
2023-01-26T08:05:01.462Z,100681.34
2023-01-26T08:05:37.087Z,100657.00
2023-01-26T08:06:12.802Z,100676.16
2023-01-26T08:06:58.474Z,100687.28
2023-01-26T08:07:32.495Z,100680.28
2023-01-26T08:08:06.300Z,100666.66